Thorne, Nevada
Current Conditions -  °F | °C
As of 1:52 PM on Saturday 22 Nov 2014 (Local Time) from KBAN Reporting Station
Light Rain Light Rain  
Wind Chill: 38°   Ceiling: 3300
Heat Index: 47°   Visibility: NA
Dew Point: 33°   Wind: 32mph
Humidity: 59%   Direction: 240°WSW
Pressure: 30.02"   Gusts: 43mph
Location:  38.6331°N, 118.656°W
Report Text: KBAN 222152Z AUTO 24028G37KT -RA BKN033 BKN045 OVC050 08/01 A3002 RMK AO2 PK WND 24041/2104 RAB2053E10B36E45B47 SLP128 P0001 T00830006 $
Loading
Personal Weather Stations






























Interactive Weather Map New forecast layout! Learn more

10-Day Weather Forecast

Advertisements
Track Severe Weather on mobile